createdAt,value
2023-06-04T00:00:03.602Z,96.47
2023-06-04T00:02:34.304Z,96.87
2023-06-04T00:05:04.970Z,96.82
2023-06-04T00:07:35.545Z,96.87
2023-06-04T00:10:07.505Z,96.42
2023-06-04T00:12:38.124Z,96.30
2023-06-04T00:15:11.636Z,95.87
2023-06-04T00:17:42.370Z,95.51
2023-06-04T00:20:13.885Z,95.17
2023-06-04T00:22:44.410Z,94.86
2023-06-04T00:25:14.880Z,95.12
2023-06-04T00:27:45.341Z,95.64
2023-06-04T00:30:18.396Z,96.15
2023-06-04T00:32:49.075Z,95.83
2023-06-04T00:35:19.768Z,95.76
2023-06-04T00:37:50.496Z,96.12
2023-06-04T00:40:21.094Z,95.81
2023-06-04T00:42:51.577Z,95.14
2023-06-04T00:45:23.924Z,94.53
2023-06-04T00:47:54.923Z,94.10
2023-06-04T00:50:25.425Z,93.70
2023-06-04T00:52:56.169Z,93.73
2023-06-04T00:55:26.739Z,93.73
2023-06-04T00:57:57.284Z,92.89
2023-06-04T01:00:29.688Z,93.65
2023-06-04T01:03:07.919Z,93.65
2023-06-04T01:05:44.978Z,93.66
2023-06-04T01:08:17.259Z,92.83
2023-06-04T01:10:55.465Z,92.65
2023-06-04T01:13:26.100Z,93.75
2023-06-04T01:16:01.743Z,93.57
2023-06-04T01:18:34.945Z,93.33
2023-06-04T01:21:10.663Z,93.65
2023-06-04T01:23:49.484Z,93.27
2023-06-04T01:26:23.693Z,92.99
2023-06-04T01:28:55.109Z,93.02
2023-06-04T01:31:28.067Z,92.98
2023-06-04T01:33:59.746Z,93.03
2023-06-04T01:36:30.377Z,92.68
2023-06-04T01:39:02.667Z,92.15
2023-06-04T01:41:33.188Z,91.93
2023-06-04T01:44:03.752Z,92.95
2023-06-04T01:46:36.046Z,92.48
2023-06-04T01:49:08.111Z,92.07
2023-06-04T01:51:38.736Z,91.45
2023-06-04T01:54:09.844Z,91.27
2023-06-04T01:56:40.477Z,91.67
2023-06-04T01:59:13.966Z,91.74
2023-06-04T02:01:46.286Z,91.78
2023-06-04T02:04:16.774Z,91.51
2023-06-04T02:06:47.321Z,91.57
2023-06-04T02:09:17.961Z,91.76
2023-06-04T02:11:48.503Z,91.96
2023-06-04T02:14:19.078Z,92.11
2023-06-04T02:16:51.758Z,93.34
2023-06-04T02:19:22.636Z,93.34
2023-06-04T02:21:53.242Z,93.74
2023-06-04T02:24:23.934Z,94.05
2023-06-04T02:26:57.639Z,94.58
2023-06-04T02:29:28.565Z,93.84
2023-06-04T02:32:00.864Z,93.74
2023-06-04T02:34:31.628Z,93.56
2023-06-04T02:37:02.134Z,93.32
2023-06-04T02:39:32.830Z,93.72
2023-06-04T02:42:03.272Z,93.99
2023-06-04T02:44:33.853Z,93.68
2023-06-04T02:47:05.963Z,93.89
2023-06-04T02:49:36.490Z,94.09
2023-06-04T02:52:07.387Z,93.90
2023-06-04T02:54:37.941Z,94.02
2023-06-04T02:57:09.263Z,93.72
2023-06-04T02:59:39.916Z,93.81
2023-06-04T03:02:13.069Z,94.09
2023-06-04T03:04:44.473Z,94.65
2023-06-04T03:07:15.344Z,95.47
2023-06-04T03:09:45.991Z,95.67
2023-06-04T03:12:16.558Z,95.86
2023-06-04T03:14:47.001Z,96.60
2023-06-04T03:17:19.516Z,96.75
2023-06-04T03:19:50.067Z,96.13
2023-06-04T03:22:20.622Z,95.76
2023-06-04T03:24:51.147Z,95.97
2023-06-04T03:27:21.702Z,96.10
2023-06-04T03:29:52.202Z,95.97
2023-06-04T03:32:24.254Z,95.64
2023-06-04T03:34:54.637Z,95.64
2023-06-04T03:37:25.175Z,95.82
2023-06-04T03:39:55.688Z,96.03
2023-06-04T03:42:26.191Z,95.88
2023-06-04T03:44:56.663Z,96.22
2023-06-04T03:47:28.853Z,96.49
2023-06-04T03:49:59.378Z,96.25
2023-06-04T03:52:30.319Z,96.40
2023-06-04T03:55:00.959Z,96.88
2023-06-04T03:57:31.548Z,97.66
2023-06-04T04:00:02.179Z,97.80
2023-06-04T04:02:34.802Z,97.50
2023-06-04T04:05:05.442Z,97.43
2023-06-04T04:07:36.039Z,97.07
2023-06-04T04:10:07.833Z,97.14
2023-06-04T04:12:38.453Z,97.30
2023-06-04T04:15:10.806Z,97.07
2023-06-04T04:17:43.031Z,96.68
2023-06-04T04:20:14.766Z,96.43
2023-06-04T04:22:45.667Z,96.80
2023-06-04T04:25:16.167Z,97.13
2023-06-04T04:27:46.683Z,97.43
2023-06-04T04:30:18.589Z,97.71
2023-06-04T04:32:52.034Z,97.39
2023-06-04T04:35:22.606Z,96.97
2023-06-04T04:37:53.135Z,97.27
2023-06-04T04:40:23.680Z,97.52
2023-06-04T04:42:54.264Z,97.58
2023-06-04T04:45:24.810Z,97.63
2023-06-04T04:47:57.053Z,97.91
2023-06-04T04:50:27.795Z,97.74
2023-06-04T04:52:58.361Z,97.09
2023-06-04T04:55:28.940Z,97.07
2023-06-04T04:57:59.613Z,96.55
2023-06-04T05:00:30.098Z,96.14
2023-06-04T05:03:02.379Z,95.88
2023-06-04T05:05:32.945Z,96.30
2023-06-04T05:08:03.537Z,97.04
2023-06-04T05:10:34.252Z,96.83
2023-06-04T05:13:04.795Z,96.78
2023-06-04T05:15:36.409Z,96.79
2023-06-04T05:18:09.681Z,96.47
2023-06-04T05:20:40.822Z,96.53
2023-06-04T05:23:11.289Z,96.90
2023-06-04T05:25:42.749Z,97.14
2023-06-04T05:28:14.773Z,97.14
2023-06-04T05:30:45.656Z,96.93
2023-06-04T05:33:21.125Z,97.16
2023-06-04T05:35:51.953Z,97.49
2023-06-04T05:38:22.544Z,97.35
2023-06-04T05:40:54.222Z,97.45
2023-06-04T05:43:26.287Z,97.66
2023-06-04T05:45:57.018Z,97.57
2023-06-04T05:48:29.296Z,97.52
2023-06-04T05:50:59.841Z,98.02
2023-06-04T05:53:30.548Z,97.68
2023-06-04T05:56:01.092Z,97.79
2023-06-04T05:58:31.765Z,97.26
2023-06-04T06:01:02.245Z,96.11
2023-06-04T06:03:34.649Z,94.03
2023-06-04T06:06:05.318Z,92.90
2023-06-04T06:08:35.898Z,92.02
2023-06-04T06:11:09.945Z,92.09
2023-06-04T06:13:41.553Z,91.76
2023-06-04T06:16:12.290Z,90.75
2023-06-04T06:18:44.468Z,89.96
2023-06-04T06:21:15.094Z,90.05
2023-06-04T06:23:45.652Z,89.47
2023-06-04T06:26:16.459Z,90.30
2023-06-04T06:28:48.056Z,90.74
2023-06-04T06:31:19.899Z,90.60
2023-06-04T06:33:52.227Z,91.79
2023-06-04T06:36:22.730Z,91.95
2023-06-04T06:38:54.328Z,92.58
2023-06-04T06:41:25.445Z,92.79
2023-06-04T06:43:56.160Z,93.35
2023-06-04T06:46:26.777Z,93.42
2023-06-04T06:48:59.482Z,92.78
2023-06-04T06:51:31.187Z,92.51
2023-06-04T06:54:03.737Z,91.55
2023-06-04T06:56:34.331Z,91.33
2023-06-04T06:59:05.028Z,91.26
2023-06-04T07:01:35.850Z,91.56
2023-06-04T07:04:08.245Z,91.16
2023-06-04T07:06:39.660Z,90.73
2023-06-04T07:09:10.556Z,90.31
2023-06-04T07:11:41.075Z,89.96
2023-06-04T07:14:11.628Z,89.51
2023-06-04T07:16:42.220Z,89.54
2023-06-04T07:19:14.325Z,88.73
2023-06-04T07:21:44.870Z,88.14
2023-06-04T07:24:15.685Z,87.93
2023-06-04T07:26:46.278Z,88.46
2023-06-04T07:29:17.124Z,89.17
2023-06-04T07:31:47.736Z,88.77
2023-06-04T07:34:19.910Z,88.63
2023-06-04T07:36:50.829Z,88.85
2023-06-04T07:39:21.273Z,87.35
2023-06-04T07:41:51.828Z,87.07
2023-06-04T07:44:22.309Z,87.54
2023-06-04T07:46:52.838Z,88.39
2023-06-04T07:49:25.077Z,88.38
2023-06-04T07:51:55.640Z,88.18
2023-06-04T07:54:26.335Z,88.27
2023-06-04T07:56:58.113Z,87.98
2023-06-04T07:59:28.609Z,88.13
2023-06-04T08:01:59.184Z,88.30
2023-06-04T08:04:31.674Z,88.07
2023-06-04T08:07:02.616Z,88.25
2023-06-04T08:09:33.160Z,88.56
2023-06-04T08:12:04.076Z,87.90
2023-06-04T08:14:34.646Z,87.48
2023-06-04T08:17:05.133Z,88.46
2023-06-04T08:19:37.268Z,88.14
2023-06-04T08:22:09.130Z,88.54
2023-06-04T08:24:39.619Z,88.05
2023-06-04T08:27:10.991Z,87.87
2023-06-04T08:29:42.185Z,87.27
2023-06-04T08:32:12.857Z,88.96
2023-06-04T08:34:45.038Z,89.31
2023-06-04T08:37:15.712Z,89.45
2023-06-04T08:39:46.252Z,89.37
2023-06-04T08:42:31.550Z,89.93
2023-06-04T08:45:02.693Z,89.87
2023-06-04T08:47:34.690Z,90.56
2023-06-04T08:50:10.486Z,92.11
2023-06-04T08:52:42.720Z,92.34
2023-06-04T08:55:16.202Z,92.30
2023-06-04T08:57:47.385Z,93.48
2023-06-04T09:00:22.584Z,94.08
2023-06-04T09:02:54.820Z,94.35
2023-06-04T09:05:30.440Z,93.67
2023-06-04T09:08:08.384Z,93.70
2023-06-04T09:10:43.661Z,94.11
2023-06-04T09:16:38.674Z,94.46
2023-06-04T09:19:18.399Z,94.73
2023-06-04T09:21:59.344Z,94.20
2023-06-04T09:24:42.420Z,94.58
2023-06-04T09:27:18.352Z,94.60
2023-06-04T09:29:59.831Z,95.05
2023-06-04T09:32:36.911Z,95.55
2023-06-04T09:35:56.852Z,94.90
2023-06-04T09:38:42.190Z,95.36
2023-06-04T09:41:37.314Z,96.09
2023-06-04T09:44:12.730Z,95.90
2023-06-04T09:46:56.899Z,96.62
2023-06-04T09:49:33.942Z,97.52
2023-06-04T09:52:06.255Z,98.81
2023-06-04T09:54:44.913Z,99.56
2023-06-04T09:57:23.751Z,100.00
2023-06-04T09:59:56.209Z,100.00
2023-06-04T10:02:35.285Z,100.00
2023-06-04T10:06:04.304Z,100.00
2023-06-04T10:08:36.003Z,100.00
2023-06-04T10:11:10.247Z,100.00
2023-06-04T10:13:49.162Z,100.00
2023-06-04T10:16:32.731Z,100.00
2023-06-04T10:19:08.698Z,100.00
2023-06-04T10:21:40.402Z,100.00
2023-06-04T10:24:13.791Z,100.00
2023-06-04T10:26:48.213Z,100.00
2023-06-04T10:29:21.536Z,100.00
2023-06-04T10:31:57.542Z,100.00
2023-06-04T10:34:32.068Z,100.00
2023-06-04T10:37:09.347Z,100.00
2023-06-04T10:39:41.877Z,100.00
2023-06-04T10:42:14.328Z,100.00
2023-06-04T10:44:49.875Z,100.00
2023-06-04T10:47:26.968Z,100.00
2023-06-04T10:50:21.750Z,100.00
2023-06-04T10:52:59.521Z,100.00
2023-06-04T10:55:30.331Z,100.00
2023-06-04T10:58:15.097Z,100.00
2023-06-04T11:00:50.651Z,100.00
2023-06-04T11:03:21.813Z,100.00
2023-06-04T11:05:59.845Z,100.00
2023-06-04T11:08:43.270Z,100.00
2023-06-04T11:11:17.914Z,100.00
2023-06-04T11:13:51.238Z,100.00
2023-06-04T11:16:24.994Z,100.00
2023-06-04T11:19:04.124Z,100.00
2023-06-04T11:21:38.710Z,100.00
2023-06-04T11:24:11.414Z,100.00
2023-06-04T11:26:48.054Z,100.00
2023-06-04T11:29:27.406Z,100.00
2023-06-04T11:31:59.811Z,100.00
2023-06-04T11:34:33.089Z,100.00
2023-06-04T11:37:15.590Z,100.00
2023-06-04T11:39:47.422Z,100.00
2023-06-04T11:42:26.265Z,100.00
2023-06-04T11:45:03.411Z,100.00
2023-06-04T11:47:36.121Z,100.00
2023-06-04T11:50:09.620Z,100.00
2023-06-04T11:52:42.501Z,100.00
2023-06-04T11:55:15.509Z,100.00
2023-06-04T11:57:47.789Z,100.00
2023-06-04T12:00:22.400Z,100.00
2023-06-04T12:02:56.429Z,100.00
2023-06-04T12:05:33.625Z,100.00
2023-06-04T12:08:12.638Z,100.00
2023-06-04T12:10:45.722Z,100.00
2023-06-04T12:13:17.537Z,100.00
2023-06-04T12:15:57.261Z,100.00
2023-06-04T12:18:29.841Z,100.00
2023-06-04T12:21:01.469Z,100.00
2023-06-04T12:23:33.150Z,100.00
2023-06-04T12:26:06.183Z,100.00
2023-06-04T12:28:38.562Z,100.00
2023-06-04T12:31:21.331Z,100.00
2023-06-04T12:33:53.079Z,100.00
2023-06-04T12:36:25.330Z,100.00
2023-06-04T12:38:57.189Z,100.00
2023-06-04T12:41:29.046Z,100.00
2023-06-04T12:44:01.612Z,100.00
2023-06-04T12:46:35.092Z,100.00
2023-06-04T12:49:10.397Z,100.00
2023-06-04T12:51:42.369Z,100.00
2023-06-04T12:54:14.067Z,100.00
2023-06-04T12:56:54.703Z,100.00
2023-06-04T12:59:26.259Z,100.00
2023-06-04T13:02:00.357Z,100.00
2023-06-04T13:04:32.070Z,100.00
2023-06-04T13:11:09.103Z,100.00
2023-06-04T13:13:42.837Z,100.00
2023-06-04T13:16:13.628Z,100.00
2023-06-04T13:18:46.072Z,100.00
2023-06-04T13:21:17.981Z,100.00
2023-06-04T13:23:53.238Z,100.00
2023-06-04T13:26:25.920Z,100.00
2023-06-04T13:28:57.490Z,100.00
2023-06-04T13:31:29.335Z,100.00
2023-06-04T13:34:08.947Z,100.00
2023-06-04T13:36:46.443Z,100.00
2023-06-04T13:39:18.211Z,100.00
2023-06-04T13:41:49.761Z,100.00
2023-06-04T13:44:21.462Z,100.00
2023-06-04T13:46:53.269Z,100.00
2023-06-04T13:49:26.522Z,100.00
2023-06-04T13:51:58.212Z,100.00
2023-06-04T13:54:30.286Z,100.00
2023-06-04T13:57:03.368Z,100.00
2023-06-04T13:59:34.968Z,100.00
2023-06-04T14:02:07.003Z,100.00
2023-06-04T14:04:42.306Z,100.00
2023-06-04T14:07:14.388Z,100.00
2023-06-04T14:09:45.912Z,100.00
2023-06-04T14:12:20.304Z,100.00
2023-06-04T14:14:51.829Z,100.00
2023-06-04T14:17:27.524Z,100.00
2023-06-04T14:20:02.518Z,100.00
2023-06-04T14:22:34.183Z,100.00
2023-06-04T14:25:06.061Z,100.00
2023-06-04T14:27:39.266Z,100.00
2023-06-04T14:30:14.016Z,100.00
2023-06-04T14:32:46.035Z,100.00
2023-06-04T14:35:19.748Z,100.00
2023-06-04T14:37:52.636Z,100.00
2023-06-04T14:40:25.070Z,100.00
2023-06-04T14:42:57.091Z,100.00
2023-06-04T14:45:28.736Z,100.00
2023-06-04T14:48:13.984Z,100.00
2023-06-04T14:50:49.297Z,100.00
2023-06-04T14:53:20.826Z,100.00
2023-06-04T14:55:54.183Z,100.00
2023-06-04T14:58:25.940Z,100.00
2023-06-04T15:01:05.689Z,100.00
2023-06-04T15:03:37.088Z,100.00
2023-06-04T15:06:21.089Z,100.00
2023-06-04T15:08:52.869Z,100.00
2023-06-04T15:11:23.397Z,100.00
2023-06-04T15:13:54.026Z,100.00
2023-06-04T15:16:32.424Z,100.00
2023-06-04T15:19:03.262Z,100.00
2023-06-04T15:21:45.980Z,100.00
2023-06-04T15:24:22.965Z,100.00
2023-06-04T15:26:54.039Z,100.00
2023-06-04T15:29:24.753Z,100.00
2023-06-04T15:31:59.500Z,100.00
2023-06-04T15:34:34.334Z,100.00
2023-06-04T15:37:06.838Z,100.00
2023-06-04T15:39:38.552Z,100.00
2023-06-04T15:42:09.518Z,100.00
2023-06-04T15:44:40.673Z,100.00
2023-06-04T15:47:11.453Z,100.00
2023-06-04T15:49:42.223Z,100.00
2023-06-04T15:52:22.110Z,100.00
2023-06-04T15:54:53.938Z,100.00
2023-06-04T15:57:31.615Z,100.00
2023-06-04T16:00:09.864Z,100.00
2023-06-04T16:02:43.214Z,100.00
2023-06-04T16:05:17.767Z,100.00
2023-06-04T16:07:59.362Z,100.00
2023-06-04T16:10:30.116Z,100.00
2023-06-04T16:13:00.672Z,100.00
2023-06-04T16:15:32.664Z,100.00
2023-06-04T16:18:03.320Z,100.00
2023-06-04T16:20:36.534Z,100.00
2023-06-04T16:23:08.845Z,100.00
2023-06-04T16:25:42.688Z,100.00
2023-06-04T16:28:15.344Z,100.00
2023-06-04T16:30:45.918Z,100.00
2023-06-04T16:33:16.650Z,100.00
2023-06-04T16:35:47.484Z,100.00
2023-06-04T16:38:19.934Z,100.00
2023-06-04T16:40:53.272Z,100.00
2023-06-04T16:43:24.537Z,100.00
2023-06-04T16:45:57.150Z,100.00
2023-06-04T16:48:27.809Z,100.00
2023-06-04T16:51:03.148Z,100.00
2023-06-04T16:53:35.577Z,100.00
2023-06-04T16:56:07.027Z,100.00
2023-06-04T16:58:42.803Z,100.00
2023-06-04T17:01:14.322Z,100.00
2023-06-04T17:03:46.016Z,100.00
2023-06-04T17:06:17.774Z,100.00
2023-06-04T17:08:50.262Z,100.00
2023-06-04T17:11:21.491Z,100.00
2023-06-04T17:13:59.620Z,100.00
2023-06-04T17:16:32.575Z,100.00
2023-06-04T17:19:03.840Z,100.00
2023-06-04T17:21:37.397Z,100.00
2023-06-04T17:24:13.091Z,100.00
2023-06-04T17:26:45.752Z,100.00
2023-06-04T17:29:19.156Z,100.00
2023-06-04T17:31:50.073Z,100.00
2023-06-04T17:34:21.181Z,100.00
2023-06-04T17:36:52.022Z,100.00
2023-06-04T17:39:24.380Z,100.00
2023-06-04T17:41:55.080Z,100.00
2023-06-04T17:44:25.660Z,100.00
2023-06-04T17:46:57.938Z,100.00
2023-06-04T17:49:31.367Z,100.00
2023-06-04T17:52:03.431Z,100.00
2023-06-04T17:54:35.698Z,100.00
2023-06-04T17:57:07.590Z,100.00
2023-06-04T17:59:38.298Z,100.00
2023-06-04T18:02:09.615Z,100.00
2023-06-04T18:04:41.600Z,100.00
2023-06-04T18:07:12.298Z,100.00
2023-06-04T18:09:46.949Z,100.00
2023-06-04T18:12:22.409Z,100.00
2023-06-04T18:14:54.659Z,100.00
2023-06-04T18:17:25.547Z,100.00
2023-06-04T18:19:59.232Z,100.00
2023-06-04T18:22:29.891Z,100.00
2023-06-04T18:25:05.716Z,100.00
2023-06-04T18:27:42.483Z,100.00
2023-06-04T18:30:13.539Z,100.00
2023-06-04T18:32:47.950Z,100.00
2023-06-04T18:35:20.598Z,100.00
2023-06-04T18:37:51.663Z,100.00
2023-06-04T18:40:24.791Z,100.00
2023-06-04T18:42:55.397Z,100.00
2023-06-04T18:45:29.767Z,100.00
2023-06-04T18:48:02.997Z,100.00
2023-06-04T18:50:34.706Z,100.00
2023-06-04T18:53:06.031Z,100.00
2023-06-04T18:55:38.502Z,100.00
2023-06-04T18:58:13.299Z,100.00
2023-06-04T19:00:44.259Z,100.00
2023-06-04T19:03:14.704Z,100.00
2023-06-04T19:05:45.124Z,100.00
2023-06-04T19:08:15.635Z,100.00
2023-06-04T19:10:52.103Z,100.00
2023-06-04T19:13:22.899Z,100.00
2023-06-04T19:15:54.577Z,100.00
2023-06-04T19:18:25.301Z,100.00
2023-06-04T19:20:55.913Z,100.00
2023-06-04T19:23:26.563Z,100.00
2023-06-04T19:25:58.804Z,100.00
2023-06-04T19:28:29.545Z,100.00
2023-06-04T19:31:00.099Z,100.00
2023-06-04T19:33:34.272Z,100.00
2023-06-04T19:36:05.462Z,100.00
2023-06-04T19:38:36.029Z,100.00
2023-06-04T19:41:08.125Z,100.00
2023-06-04T19:43:38.694Z,100.00
2023-06-04T19:46:09.391Z,100.00
2023-06-04T19:48:40.211Z,100.00
2023-06-04T19:51:11.030Z,100.00
2023-06-04T19:53:41.663Z,100.00
2023-06-04T19:56:13.746Z,100.00
2023-06-04T19:58:44.250Z,100.00
2023-06-04T20:01:14.752Z,100.00
2023-06-04T20:03:45.248Z,100.00
2023-06-04T20:06:15.776Z,100.00
2023-06-04T20:08:46.697Z,100.00
2023-06-04T20:11:18.883Z,100.00
2023-06-04T20:13:49.395Z,100.00
2023-06-04T20:16:19.919Z,100.00
2023-06-04T20:18:52.700Z,100.00
2023-06-04T20:21:23.148Z,100.00
2023-06-04T20:23:55.307Z,100.00
2023-06-04T20:26:28.486Z,100.00
2023-06-04T20:28:59.958Z,100.00
2023-06-04T20:31:30.927Z,100.00
2023-06-04T20:34:01.534Z,100.00
2023-06-04T20:36:33.849Z,100.00
2023-06-04T20:39:05.078Z,100.00
2023-06-04T20:41:37.187Z,100.00
2023-06-04T20:44:07.659Z,100.00
2023-06-04T20:46:38.108Z,100.00
2023-06-04T20:49:08.686Z,100.00
2023-06-04T20:51:39.193Z,100.00
2023-06-04T20:54:09.870Z,100.00
2023-06-04T20:56:45.363Z,100.00
2023-06-04T20:59:18.176Z,100.00
2023-06-04T21:01:48.751Z,100.00
2023-06-04T21:04:19.418Z,100.00
2023-06-04T21:06:51.086Z,100.00
2023-06-04T21:09:21.692Z,100.00
2023-06-04T21:11:53.908Z,100.00
2023-06-04T21:14:24.376Z,99.41
2023-06-04T21:16:54.896Z,98.50
2023-06-04T21:19:25.992Z,97.79
2023-06-04T21:21:57.683Z,98.21
2023-06-04T21:24:28.275Z,97.67
2023-06-04T21:27:00.795Z,96.47
2023-06-04T21:29:31.374Z,95.59
2023-06-04T21:32:01.963Z,94.64
2023-06-04T21:34:35.521Z,93.82
2023-06-04T21:37:05.929Z,93.49
2023-06-04T21:39:37.829Z,93.93
2023-06-04T21:42:10.867Z,93.38
2023-06-04T21:44:41.447Z,93.80
2023-06-04T21:47:12.362Z,93.87
2023-06-04T21:49:42.832Z,93.12
2023-06-04T21:52:21.641Z,92.24
2023-06-04T21:54:55.763Z,91.28
2023-06-04T21:57:27.882Z,91.08
2023-06-04T21:59:58.433Z,91.19
2023-06-04T22:02:28.974Z,90.66
2023-06-04T22:04:59.577Z,90.21
2023-06-04T22:07:30.213Z,90.83
2023-06-04T22:10:00.861Z,91.27
2023-06-04T22:12:32.919Z,89.79
2023-06-04T22:15:03.456Z,88.67
2023-06-04T22:17:34.027Z,88.05
2023-06-04T22:20:04.790Z,87.83
2023-06-04T22:22:35.255Z,88.27
2023-06-04T22:25:05.713Z,88.87
2023-06-04T22:27:37.772Z,90.38
2023-06-04T22:30:09.394Z,88.92
2023-06-04T22:32:39.894Z,86.34
2023-06-04T22:35:10.675Z,84.18
2023-06-04T22:37:41.152Z,85.09
2023-06-04T22:40:12.463Z,84.34
2023-06-04T22:42:44.598Z,82.92
2023-06-04T22:45:15.251Z,83.81
2023-06-04T22:47:45.802Z,81.51
2023-06-04T22:50:16.519Z,83.32
2023-06-04T22:52:47.140Z,82.88
2023-06-04T22:55:19.228Z,80.34
2023-06-04T22:57:52.781Z,79.86
2023-06-04T23:00:24.021Z,81.46
2023-06-04T23:02:57.309Z,82.55
2023-06-04T23:05:27.987Z,82.95
2023-06-04T23:07:58.600Z,82.14
2023-06-04T23:10:29.265Z,83.09
2023-06-04T23:13:01.438Z,82.97
2023-06-04T23:15:31.922Z,81.88
2023-06-04T23:18:02.591Z,80.89
2023-06-04T23:20:33.197Z,80.55
2023-06-04T23:23:03.832Z,81.22
2023-06-04T23:25:34.594Z,81.40
2023-06-04T23:28:06.946Z,82.37
2023-06-04T23:30:37.647Z,80.85
2023-06-04T23:33:08.290Z,80.40
2023-06-04T23:35:38.940Z,80.48
2023-06-04T23:38:09.591Z,80.40
2023-06-04T23:40:40.198Z,79.80
2023-06-04T23:43:12.383Z,79.92
2023-06-04T23:45:43.048Z,80.12
2023-06-04T23:48:13.758Z,80.15
2023-06-04T23:50:44.377Z,79.72
2023-06-04T23:53:14.988Z,79.12
2023-06-04T23:55:45.561Z,78.05
2023-06-04T23:58:18.098Z,80.83
